createdAt,value
2022-11-08T00:02:23.526Z,60.48
2022-11-08T00:04:50.344Z,60.30
2022-11-08T00:07:35.545Z,61.24
2022-11-08T00:10:21.086Z,62.16
2022-11-08T00:13:06.445Z,62.20
2022-11-08T00:15:38.918Z,61.62
2022-11-08T00:18:07.318Z,61.00
2022-11-08T00:20:34.122Z,60.46
2022-11-08T00:23:01.084Z,61.47
2022-11-08T00:25:27.722Z,61.25
2022-11-08T00:27:54.404Z,61.38
2022-11-08T00:30:21.023Z,61.04
2022-11-08T00:32:47.908Z,60.35
2022-11-08T00:35:14.667Z,60.86
2022-11-08T00:37:41.235Z,61.02
2022-11-08T00:40:08.235Z,61.12
2022-11-08T00:42:34.860Z,60.84
2022-11-08T00:45:01.528Z,60.71
2022-11-08T00:47:28.170Z,61.04
2022-11-08T00:49:55.359Z,61.70
2022-11-08T00:52:22.142Z,61.27
2022-11-08T00:54:48.778Z,62.45
2022-11-08T00:57:15.386Z,61.71
2022-11-08T00:59:42.068Z,61.73
2022-11-08T01:02:08.706Z,61.73
2022-11-08T01:04:35.479Z,61.94
2022-11-08T01:07:02.330Z,61.87
2022-11-08T01:09:29.009Z,61.63
2022-11-08T01:11:55.619Z,61.06
2022-11-08T01:14:22.259Z,61.30
2022-11-08T01:16:48.902Z,61.86
2022-11-08T01:19:15.489Z,62.68
2022-11-08T01:21:42.078Z,62.56
2022-11-08T01:24:08.955Z,62.44
2022-11-08T01:26:35.548Z,63.21
2022-11-08T01:29:02.292Z,64.59
2022-11-08T01:31:31.941Z,63.84
2022-11-08T01:33:59.635Z,63.06
2022-11-08T01:36:28.592Z,62.79
2022-11-08T01:38:56.365Z,61.84
2022-11-08T01:41:24.944Z,62.14
2022-11-08T01:43:56.793Z,62.38
2022-11-08T01:46:33.028Z,62.09
2022-11-08T01:49:17.222Z,62.07
2022-11-08T01:52:04.826Z,61.91
2022-11-08T01:55:04.949Z,62.51
2022-11-08T01:57:38.661Z,63.04
2022-11-08T02:00:08.579Z,63.29
2022-11-08T02:02:36.975Z,63.23
2022-11-08T02:05:06.647Z,63.16
2022-11-08T02:07:34.724Z,63.12
2022-11-08T02:10:03.249Z,63.24
2022-11-08T02:12:30.347Z,62.94
2022-11-08T02:14:57.158Z,62.48
2022-11-08T02:17:23.765Z,63.88
2022-11-08T02:19:51.203Z,63.31
2022-11-08T02:22:33.430Z,63.41
2022-11-08T02:25:00.398Z,63.11
2022-11-08T02:27:27.082Z,63.43
2022-11-08T02:29:55.834Z,63.25
2022-11-08T02:32:23.310Z,63.01
2022-11-08T02:34:56.288Z,62.75
2022-11-08T02:37:23.774Z,62.32
2022-11-08T02:39:50.463Z,62.66
2022-11-08T02:42:19.864Z,62.75
2022-11-08T02:44:47.412Z,62.81
2022-11-08T02:47:14.424Z,62.06
2022-11-08T02:49:41.168Z,61.91
2022-11-08T02:52:08.028Z,62.20
2022-11-08T02:54:34.802Z,62.36
2022-11-08T02:57:01.448Z,62.83
2022-11-08T02:59:28.074Z,63.07
2022-11-08T03:01:54.829Z,63.88
2022-11-08T03:04:21.589Z,63.31
2022-11-08T03:06:48.230Z,63.16
2022-11-08T03:09:14.868Z,63.30
2022-11-08T03:11:41.591Z,63.29
2022-11-08T03:14:08.364Z,63.94
2022-11-08T03:16:35.032Z,63.40
2022-11-08T03:19:01.831Z,63.74
2022-11-08T03:21:28.557Z,63.83
2022-11-08T03:23:55.183Z,63.75
2022-11-08T03:26:21.908Z,63.25
2022-11-08T03:28:48.571Z,63.34
2022-11-08T03:31:15.169Z,62.63
2022-11-08T03:33:41.797Z,62.50
2022-11-08T03:36:08.770Z,62.73
2022-11-08T03:38:35.452Z,62.74
2022-11-08T03:41:02.047Z,63.51
2022-11-08T03:43:28.659Z,63.97
2022-11-08T03:45:55.318Z,64.04
2022-11-08T03:48:23.724Z,63.48
2022-11-08T03:50:53.159Z,64.58
2022-11-08T03:53:19.752Z,64.48
2022-11-08T03:55:46.449Z,64.16
2022-11-08T03:58:13.231Z,64.10
2022-11-08T04:00:39.945Z,65.29
2022-11-08T04:03:06.597Z,65.20
2022-11-08T04:05:33.628Z,65.72
2022-11-08T04:08:03.089Z,65.28
2022-11-08T04:10:29.749Z,65.06
2022-11-08T04:13:18.241Z,65.09
2022-11-08T04:15:46.061Z,64.99
2022-11-08T04:18:31.459Z,65.05
2022-11-08T04:21:18.948Z,65.31
2022-11-08T04:23:46.610Z,64.99
2022-11-08T04:26:13.382Z,65.80
2022-11-08T04:28:41.498Z,66.16
2022-11-08T04:31:18.100Z,65.98
2022-11-08T04:33:45.006Z,66.21
2022-11-08T04:36:14.155Z,65.25
2022-11-08T04:38:41.128Z,65.91
2022-11-08T04:41:11.479Z,65.47
2022-11-08T04:43:38.684Z,65.76
2022-11-08T04:46:07.977Z,65.41
2022-11-08T04:48:35.575Z,65.71
2022-11-08T04:51:07.752Z,65.24
2022-11-08T04:53:34.875Z,64.64
2022-11-08T04:56:12.798Z,65.05
2022-11-08T04:58:42.003Z,65.29
2022-11-08T05:01:11.130Z,66.63
2022-11-08T05:03:37.810Z,67.12
2022-11-08T05:06:06.801Z,66.57
2022-11-08T05:08:33.953Z,66.19
2022-11-08T05:11:05.290Z,66.37
2022-11-08T05:13:32.046Z,66.25
2022-11-08T05:16:07.629Z,66.36
2022-11-08T05:18:34.958Z,65.94
2022-11-08T05:21:21.223Z,66.34
2022-11-08T05:23:49.894Z,66.99
2022-11-08T05:26:18.404Z,66.62
2022-11-08T05:28:45.013Z,66.94
2022-11-08T05:31:12.392Z,67.54
2022-11-08T05:33:38.972Z,67.10
2022-11-08T05:36:08.220Z,66.72
2022-11-08T05:38:34.960Z,66.98
2022-11-08T05:41:14.090Z,67.17
2022-11-08T05:43:40.728Z,68.46
2022-11-08T05:46:08.103Z,68.63
2022-11-08T05:48:35.425Z,67.93
2022-11-08T05:51:02.169Z,68.05
2022-11-08T05:53:28.969Z,68.77
2022-11-08T05:55:59.872Z,68.71
2022-11-08T05:58:27.273Z,69.07
2022-11-08T06:01:12.575Z,68.32
2022-11-08T06:03:39.685Z,68.88
2022-11-08T06:06:09.138Z,68.53
2022-11-08T06:08:36.152Z,68.14
2022-11-08T06:11:10.735Z,67.46
2022-11-08T06:13:37.960Z,68.04
2022-11-08T06:16:07.197Z,67.13
2022-11-08T06:18:34.740Z,67.18
2022-11-08T06:21:02.881Z,67.21
2022-11-08T06:23:29.633Z,67.49
2022-11-08T06:25:56.580Z,67.78
2022-11-08T06:28:23.483Z,67.69
2022-11-08T06:30:50.724Z,67.34
2022-11-08T06:33:18.223Z,67.18
2022-11-08T06:35:45.157Z,67.53
2022-11-08T06:38:12.058Z,67.40
2022-11-08T06:40:39.991Z,67.81
2022-11-08T06:43:06.719Z,67.93
2022-11-08T06:45:33.472Z,67.67
2022-11-08T06:48:01.808Z,67.24
2022-11-08T06:50:30.240Z,67.75
2022-11-08T06:53:05.950Z,67.93
2022-11-08T06:55:33.870Z,67.87
2022-11-08T06:58:01.023Z,67.81
2022-11-08T07:00:28.247Z,67.39
2022-11-08T07:02:56.424Z,67.38
2022-11-08T07:05:23.629Z,67.43
2022-11-08T07:07:53.626Z,67.12
2022-11-08T07:10:22.961Z,67.57
2022-11-08T07:12:50.947Z,67.27
2022-11-08T07:15:17.943Z,66.85
2022-11-08T07:17:44.585Z,66.44
2022-11-08T07:20:11.725Z,66.88
2022-11-08T07:22:38.345Z,67.41
2022-11-08T07:25:05.636Z,67.30
2022-11-08T07:27:32.359Z,67.16
2022-11-08T07:29:59.925Z,67.53
2022-11-08T07:32:26.546Z,67.61
2022-11-08T07:34:53.107Z,66.99
2022-11-08T07:37:19.707Z,66.60
2022-11-08T07:39:46.311Z,66.93
2022-11-08T07:42:12.893Z,67.46
2022-11-08T07:44:39.524Z,66.73
2022-11-08T07:47:06.218Z,66.83
2022-11-08T07:49:32.808Z,66.74
2022-11-08T07:51:59.391Z,67.11
2022-11-08T07:54:26.024Z,67.73
2022-11-08T07:56:52.609Z,67.51
2022-11-08T07:59:19.196Z,68.03
2022-11-08T08:01:45.853Z,66.54
2022-11-08T08:04:12.668Z,67.96
2022-11-08T08:06:39.303Z,67.20
2022-11-08T08:09:05.942Z,67.52
2022-11-08T08:11:33.935Z,67.06
2022-11-08T08:14:00.775Z,66.97
2022-11-08T08:16:27.368Z,67.81
2022-11-08T08:18:56.686Z,70.96
2022-11-08T08:21:23.721Z,70.23
2022-11-08T08:23:50.396Z,69.75
2022-11-08T08:26:17.006Z,68.96
2022-11-08T08:28:43.628Z,67.28
2022-11-08T08:31:10.190Z,67.30
2022-11-08T08:33:37.966Z,67.06
2022-11-08T08:36:05.277Z,66.50
2022-11-08T08:38:33.383Z,67.20
2022-11-08T08:41:00.947Z,68.59
2022-11-08T08:43:27.917Z,68.64
2022-11-08T08:45:58.243Z,68.34
2022-11-08T08:48:24.861Z,68.49
2022-11-08T08:50:51.499Z,68.37
2022-11-08T08:53:18.416Z,66.95
2022-11-08T08:55:45.160Z,67.32
2022-11-08T08:58:11.877Z,67.31
2022-11-08T09:03:25.667Z,67.52
2022-11-08T09:05:52.257Z,67.46
2022-11-08T09:08:19.069Z,68.75
2022-11-08T09:10:45.953Z,67.94
2022-11-08T09:13:12.547Z,67.06
2022-11-08T09:15:39.603Z,67.40
2022-11-08T09:18:06.764Z,66.71
2022-11-08T09:20:33.430Z,66.34
2022-11-08T09:23:03.937Z,66.07
2022-11-08T09:25:31.316Z,66.19
2022-11-08T09:27:57.939Z,68.32
2022-11-08T09:30:24.598Z,66.94
2022-11-08T09:33:00.899Z,66.49
2022-11-08T09:35:29.183Z,65.89
2022-11-08T09:37:56.208Z,65.26
2022-11-08T09:40:39.663Z,66.47
2022-11-08T09:43:27.394Z,66.54
2022-11-08T09:45:56.148Z,66.58
2022-11-08T09:48:38.890Z,66.35
2022-11-08T09:51:18.307Z,64.18
2022-11-08T09:53:51.906Z,64.22
2022-11-08T09:56:21.605Z,65.73
2022-11-08T09:58:54.846Z,64.50
2022-11-08T10:01:26.838Z,65.09
2022-11-08T10:03:57.657Z,63.92
2022-11-08T10:06:59.398Z,63.19
2022-11-08T10:09:40.597Z,63.22
2022-11-08T10:12:31.701Z,62.94
2022-11-08T10:15:30.315Z,61.87
2022-11-08T10:17:57.293Z,61.48
2022-11-08T10:20:26.909Z,61.23
2022-11-08T10:23:23.923Z,61.55
2022-11-08T10:25:54.775Z,59.81
2022-11-08T10:28:42.128Z,58.13
2022-11-08T10:31:12.811Z,59.55
2022-11-08T10:34:00.672Z,58.39
2022-11-08T10:36:54.551Z,59.84
2022-11-08T10:39:27.941Z,60.20
2022-11-08T10:42:08.151Z,59.51
2022-11-08T10:44:35.510Z,58.98
2022-11-08T10:47:05.729Z,59.15
2022-11-08T10:49:34.998Z,57.22
2022-11-08T10:52:16.565Z,57.48
2022-11-08T10:54:45.898Z,58.12
2022-11-08T10:57:17.953Z,58.66
2022-11-08T10:59:45.481Z,58.16
2022-11-08T11:02:35.458Z,56.70
2022-11-08T11:05:21.829Z,56.66
2022-11-08T11:08:01.915Z,56.26
2022-11-08T11:10:46.663Z,55.17
2022-11-08T11:16:05.601Z,54.46
2022-11-08T11:18:46.842Z,55.40
2022-11-08T11:21:22.168Z,54.11
2022-11-08T11:24:10.248Z,53.67
2022-11-08T11:27:05.220Z,54.15
2022-11-08T11:29:34.648Z,53.66
2022-11-08T11:32:40.152Z,53.00
2022-11-08T11:35:14.257Z,53.21
2022-11-08T11:37:46.055Z,52.33
2022-11-08T11:40:18.474Z,53.25
2022-11-08T11:43:02.844Z,54.02
2022-11-08T11:45:36.587Z,53.68
2022-11-08T11:48:11.913Z,54.50
2022-11-08T11:50:41.092Z,54.04
2022-11-08T11:53:16.566Z,53.44
2022-11-08T11:56:13.513Z,52.42
2022-11-08T11:58:51.822Z,52.29
2022-11-08T12:01:30.210Z,52.97
2022-11-08T12:04:30.718Z,52.75
2022-11-08T12:07:18.002Z,53.44
2022-11-08T12:09:47.461Z,52.94
2022-11-08T12:12:36.005Z,52.26
2022-11-08T12:15:23.978Z,51.60
2022-11-08T12:18:02.864Z,52.12
2022-11-08T12:20:48.221Z,52.94
2022-11-08T12:23:36.022Z,52.68
2022-11-08T12:26:30.141Z,52.31
2022-11-08T12:29:24.151Z,52.76
2022-11-08T12:32:46.346Z,51.21
2022-11-08T12:35:19.841Z,51.26
2022-11-08T12:38:11.026Z,50.54
2022-11-08T12:41:02.433Z,50.31
2022-11-08T12:43:47.455Z,50.05
2022-11-08T12:46:19.156Z,49.54
2022-11-08T12:49:12.160Z,49.82
2022-11-08T12:51:52.440Z,49.66
2022-11-08T12:54:39.292Z,49.37
2022-11-08T12:57:11.561Z,49.63
2022-11-08T12:59:58.452Z,49.84
2022-11-08T13:02:30.167Z,49.81
2022-11-08T13:05:08.273Z,49.95
2022-11-08T13:07:43.647Z,49.75
2022-11-08T13:10:43.889Z,49.25
2022-11-08T13:13:32.046Z,49.37
2022-11-08T13:16:16.925Z,49.28
2022-11-08T13:18:56.478Z,49.04
2022-11-08T13:21:28.782Z,49.32
2022-11-08T13:24:43.325Z,49.18
2022-11-08T13:27:38.852Z,48.91
2022-11-08T13:30:05.658Z,49.04
2022-11-08T13:32:44.139Z,48.15
2022-11-08T13:35:19.810Z,47.90
2022-11-08T13:37:55.650Z,48.32
2022-11-08T13:40:39.481Z,48.61
2022-11-08T13:43:27.074Z,48.26
2022-11-08T13:45:54.312Z,49.52
2022-11-08T13:48:37.756Z,50.36
2022-11-08T13:51:24.109Z,51.05
2022-11-08T13:53:58.128Z,50.63
2022-11-08T13:56:56.850Z,49.56
2022-11-08T13:59:29.295Z,49.94
2022-11-08T14:02:15.816Z,50.63
2022-11-08T14:04:42.476Z,49.70
2022-11-08T14:07:22.237Z,50.56
2022-11-08T14:10:10.615Z,50.50
2022-11-08T14:12:43.060Z,49.94
2022-11-08T14:15:28.712Z,50.78
2022-11-08T14:18:00.142Z,50.43
2022-11-08T14:20:36.402Z,50.63
2022-11-08T14:23:11.868Z,50.54
2022-11-08T14:25:39.946Z,50.36
2022-11-08T14:28:29.837Z,50.25
2022-11-08T14:30:57.921Z,50.50
2022-11-08T14:33:32.153Z,50.42
2022-11-08T14:36:02.770Z,50.68
2022-11-08T14:38:32.742Z,50.54
2022-11-08T14:41:02.662Z,50.60
2022-11-08T14:43:29.866Z,50.93
2022-11-08T14:46:00.219Z,51.48
2022-11-08T14:48:31.267Z,52.17
2022-11-08T14:50:59.501Z,52.77
2022-11-08T14:53:31.689Z,52.57
2022-11-08T14:56:08.253Z,53.17
2022-11-08T14:58:34.914Z,53.51
2022-11-08T15:01:03.853Z,53.10
2022-11-08T15:03:31.952Z,53.67
2022-11-08T15:06:07.302Z,53.92
2022-11-08T15:08:45.452Z,53.67
2022-11-08T15:11:28.626Z,53.69
2022-11-08T15:14:02.253Z,53.83
2022-11-08T15:16:39.254Z,53.75
2022-11-08T15:19:18.371Z,54.02
2022-11-08T15:21:49.390Z,54.58
2022-11-08T15:24:16.994Z,54.01
2022-11-08T15:27:12.046Z,54.29
2022-11-08T15:29:55.012Z,54.96
2022-11-08T15:32:23.231Z,54.90
2022-11-08T15:34:56.910Z,55.14
2022-11-08T15:37:36.711Z,55.91
2022-11-08T15:40:16.387Z,55.30
2022-11-08T15:42:45.175Z,55.50
2022-11-08T15:45:14.480Z,55.49
2022-11-08T15:47:46.485Z,55.41
2022-11-08T15:50:13.247Z,54.85
2022-11-08T15:52:43.038Z,54.34
2022-11-08T15:55:17.853Z,53.97
2022-11-08T15:57:46.838Z,54.35
2022-11-08T16:00:27.958Z,54.50
2022-11-08T16:02:55.280Z,54.87
2022-11-08T16:05:24.347Z,55.20
2022-11-08T16:07:51.581Z,55.75
2022-11-08T16:10:21.797Z,55.07
2022-11-08T16:12:48.622Z,54.97
2022-11-08T16:15:17.829Z,55.01
2022-11-08T16:17:44.498Z,55.29
2022-11-08T16:20:27.742Z,55.10
2022-11-08T16:22:58.980Z,54.87
2022-11-08T16:25:28.436Z,55.41
2022-11-08T16:28:02.685Z,55.47
2022-11-08T16:30:31.535Z,55.94
2022-11-08T16:32:58.521Z,55.79
2022-11-08T16:35:25.733Z,55.75
2022-11-08T16:37:53.616Z,55.57
2022-11-08T16:40:24.830Z,55.37
2022-11-08T16:42:53.132Z,56.64
2022-11-08T16:45:43.469Z,56.29
2022-11-08T16:48:16.528Z,55.54
2022-11-08T16:50:43.841Z,55.55
2022-11-08T16:53:21.493Z,55.74
2022-11-08T16:55:49.048Z,55.58
2022-11-08T16:58:15.944Z,55.78
2022-11-08T17:00:44.313Z,55.80
2022-11-08T17:03:18.475Z,55.81
2022-11-08T17:05:45.169Z,56.95
2022-11-08T17:08:11.794Z,56.83
2022-11-08T17:10:38.607Z,56.68
2022-11-08T17:13:05.260Z,56.24
2022-11-08T17:15:32.037Z,57.80
2022-11-08T17:17:59.253Z,57.41
2022-11-08T17:20:27.236Z,57.03
2022-11-08T17:22:54.324Z,57.46
2022-11-08T17:25:23.166Z,57.57
2022-11-08T17:27:51.406Z,57.60
2022-11-08T17:30:23.799Z,57.36
2022-11-08T17:32:53.077Z,58.55
2022-11-08T17:35:19.729Z,57.67
2022-11-08T17:37:46.367Z,57.76
2022-11-08T17:40:13.093Z,57.38
2022-11-08T17:42:39.792Z,56.90
2022-11-08T17:45:08.804Z,56.50
2022-11-08T17:47:36.454Z,56.22
2022-11-08T17:50:03.339Z,55.95
2022-11-08T17:52:29.987Z,56.26
2022-11-08T17:54:56.707Z,55.94
2022-11-08T17:57:23.333Z,56.04
2022-11-08T17:59:50.522Z,55.61
2022-11-08T18:02:17.402Z,55.54
2022-11-08T18:04:44.290Z,55.39
2022-11-08T18:07:10.972Z,55.34
2022-11-08T18:09:37.768Z,55.29
2022-11-08T18:12:16.228Z,55.13
2022-11-08T18:14:49.267Z,55.16
2022-11-08T18:17:15.883Z,55.20
2022-11-08T18:19:44.739Z,55.46
2022-11-08T18:22:11.389Z,55.55
2022-11-08T18:24:49.910Z,56.39
2022-11-08T18:27:17.252Z,56.74
2022-11-08T18:29:44.092Z,56.90
2022-11-08T18:32:10.763Z,56.34
2022-11-08T18:34:37.415Z,56.67
2022-11-08T18:37:04.117Z,56.84
2022-11-08T18:39:30.758Z,57.64
2022-11-08T18:41:57.325Z,57.33
2022-11-08T18:44:24.055Z,57.25
2022-11-08T18:46:50.831Z,57.58
2022-11-08T18:49:17.503Z,58.81
2022-11-08T18:51:44.233Z,59.71
2022-11-08T18:54:10.863Z,58.53
2022-11-08T18:56:38.765Z,57.88
2022-11-08T18:59:06.538Z,57.72
2022-11-08T19:01:33.191Z,57.80
2022-11-08T19:03:59.853Z,57.63
2022-11-08T19:06:26.640Z,57.50
2022-11-08T19:08:53.709Z,57.45
2022-11-08T19:11:22.952Z,57.63
2022-11-08T19:13:49.809Z,57.17
2022-11-08T19:16:18.991Z,57.53
2022-11-08T19:18:46.874Z,57.64
2022-11-08T19:21:16.421Z,57.40
2022-11-08T19:23:43.615Z,57.70
2022-11-08T19:26:13.425Z,57.71
2022-11-08T19:28:42.480Z,57.29
2022-11-08T19:31:09.138Z,57.62
2022-11-08T19:33:36.385Z,57.78
2022-11-08T19:36:05.974Z,57.82
2022-11-08T19:38:37.453Z,57.82
2022-11-08T19:41:06.228Z,57.98
2022-11-08T19:43:37.898Z,58.09
2022-11-08T19:46:07.904Z,58.02
2022-11-08T19:48:37.671Z,57.99
2022-11-08T19:51:07.031Z,58.30
2022-11-08T19:53:34.368Z,57.71
2022-11-08T19:56:02.517Z,58.07
2022-11-08T19:58:31.696Z,58.30
2022-11-08T20:00:58.440Z,58.13
2022-11-08T20:03:25.276Z,58.13
2022-11-08T20:05:53.688Z,58.04
2022-11-08T20:08:21.478Z,57.86
2022-11-08T20:10:49.894Z,58.86
2022-11-08T20:13:16.550Z,60.06
2022-11-08T20:15:43.357Z,60.15
2022-11-08T20:18:11.381Z,59.65
2022-11-08T20:20:42.310Z,59.50
2022-11-08T20:23:09.832Z,58.90
2022-11-08T20:25:36.480Z,58.35
2022-11-08T20:28:03.760Z,57.93
2022-11-08T20:30:30.948Z,58.05
2022-11-08T20:32:57.691Z,57.60
2022-11-08T20:35:24.292Z,57.73
2022-11-08T20:37:51.096Z,57.52
2022-11-08T20:40:17.710Z,57.60
2022-11-08T20:42:50.433Z,57.67
2022-11-08T20:45:17.202Z,57.74
2022-11-08T20:47:43.891Z,58.11
2022-11-08T20:50:11.129Z,57.77
2022-11-08T20:52:40.585Z,58.30
2022-11-08T20:55:07.426Z,57.74
2022-11-08T20:57:34.008Z,58.37
2022-11-08T21:00:13.185Z,57.88
2022-11-08T21:02:40.497Z,58.78
2022-11-08T21:05:25.446Z,58.44
2022-11-08T21:08:57.319Z,59.07
2022-11-08T21:11:05.016Z,58.89
2022-11-08T21:13:33.750Z,58.80
2022-11-08T21:16:19.747Z,59.22
2022-11-08T21:18:47.823Z,59.02
2022-11-08T21:21:17.351Z,59.78
2022-11-08T21:23:46.881Z,60.76
2022-11-08T21:26:15.158Z,60.37
2022-11-08T21:31:53.360Z,59.70
2022-11-08T21:34:20.023Z,60.13
2022-11-08T21:36:46.588Z,61.02
2022-11-08T21:39:14.240Z,60.72
2022-11-08T21:41:40.913Z,59.82
2022-11-08T21:44:07.511Z,59.92
2022-11-08T21:46:34.084Z,60.31
2022-11-08T21:49:03.581Z,61.92
2022-11-08T21:51:31.479Z,61.58
2022-11-08T21:53:59.093Z,60.76
2022-11-08T21:56:29.385Z,60.52
2022-11-08T21:58:56.277Z,60.25
2022-11-08T22:01:27.184Z,59.93
2022-11-08T22:03:56.438Z,60.72
2022-11-08T22:06:23.178Z,60.49
2022-11-08T22:08:49.940Z,60.66
2022-11-08T22:11:16.522Z,61.12
2022-11-08T22:13:43.145Z,60.37
2022-11-08T22:16:09.925Z,59.97
2022-11-08T22:18:58.651Z,59.42
2022-11-08T22:21:40.532Z,59.82
2022-11-08T22:24:08.804Z,60.39
2022-11-08T22:26:36.087Z,60.09
2022-11-08T22:29:03.487Z,59.82
2022-11-08T22:31:31.147Z,58.93
2022-11-08T22:33:57.726Z,59.88
2022-11-08T22:36:24.565Z,59.88
2022-11-08T22:38:51.266Z,60.33
2022-11-08T22:41:19.884Z,60.85
2022-11-08T22:43:47.394Z,60.71
2022-11-08T22:46:14.694Z,60.41
2022-11-08T22:48:41.439Z,60.21
2022-11-08T22:51:08.381Z,60.16
2022-11-08T22:53:35.416Z,62.59
2022-11-08T22:56:08.300Z,61.28
2022-11-08T22:58:37.931Z,60.83
2022-11-08T23:01:05.149Z,60.57
2022-11-08T23:03:32.034Z,60.47
2022-11-08T23:05:58.744Z,60.24
2022-11-08T23:08:26.967Z,60.61
2022-11-08T23:11:12.842Z,60.88
2022-11-08T23:13:58.344Z,61.36
2022-11-08T23:16:37.769Z,63.35
2022-11-08T23:19:25.886Z,62.67
2022-11-08T23:22:12.755Z,62.03
2022-11-08T23:24:40.609Z,62.65
2022-11-08T23:27:26.005Z,62.00
2022-11-08T23:30:11.133Z,61.90
2022-11-08T23:32:43.249Z,61.66
2022-11-08T23:35:10.634Z,61.47
2022-11-08T23:37:37.459Z,61.07
2022-11-08T23:40:24.380Z,60.59
2022-11-08T23:43:24.470Z,61.36
2022-11-08T23:45:51.509Z,62.43
2022-11-08T23:48:18.199Z,62.82
2022-11-08T23:50:53.014Z,62.58
2022-11-08T23:53:22.234Z,62.53
2022-11-08T23:55:49.056Z,63.27
2022-11-08T23:58:15.745Z,63.54
